Time;durP1;ratioP1;P1;durP2;ratioP2;P2;SDS_P1;SDS_P2;PMS_P1;PMS_P2;Temp;Humidity;BMP_temperature;BMP_pressure;BME280_temperature;BME280_humidity;BME280_pressure;Samples;Min_cycle;Max_cycle;Signal;HPM_P1;HPM_P2
2022/10/05 00:00:14;;;;;;;14.02;8.95;;;;;;;14.68;84.82;101691.28;5027746;28;20073;-72
2022/10/05 00:02:39;;;;;;;13.47;9.00;;;;;;;14.68;85.25;101687.69;5016855;28;20045;-70
2022/10/05 00:05:40;;;;;;;13.73;8.30;;;;;;;14.67;85.12;101686.84;5024235;28;20647;-73
2022/10/05 00:08:17;;;;;;;11.80;8.23;;;;;;;14.66;85.04;101692.63;5024430;28;20064;-73
2022/10/05 00:10:44;;;;;;;11.90;8.75;;;;;;;14.65;85.61;101690.91;5027252;28;20488;-73
2022/10/05 00:13:15;;;;;;;13.77;8.75;;;;;;;14.63;85.48;101691.16;5028809;28;20041;-73
2022/10/05 00:15:42;;;;;;;12.57;7.97;;;;;;;14.63;85.72;101691.16;5028590;28;20037;-71
2022/10/05 00:18:17;;;;;;;12.30;8.98;;;;;;;14.65;85.59;101680.72;5027101;28;20033;-73
2022/10/05 00:20:43;;;;;;;12.52;9.07;;;;;;;14.60;85.74;101677.81;5025798;28;20029;-70
2022/10/05 00:23:17;;;;;;;12.73;9.38;;;;;;;14.58;86.30;101666.13;5010326;28;20092;-73
2022/10/05 00:25:43;;;;;;;13.30;9.43;;;;;;;14.57;86.40;101671.91;5027710;28;20041;-69
2022/10/05 00:28:17;;;;;;;12.52;9.25;;;;;;;14.56;86.18;101671.06;5027633;28;20038;-73
2022/10/05 00:30:42;;;;;;;12.18;8.82;;;;;;;14.56;86.13;101671.06;5028479;28;20030;-72
2022/10/05 00:33:08;;;;;;;15.35;9.38;;;;;;;14.56;86.76;101671.06;5025564;28;20040;-71
2022/10/05 00:35:36;;;;;;;13.52;9.70;;;;;;;14.54;87.00;101668.53;5025715;28;20044;-72
2022/10/05 00:38:01;;;;;;;12.23;9.05;;;;;;;14.56;86.67;101662.78;5026261;28;20040;-71
2022/10/05 00:40:55;;;;;;;14.35;9.93;;;;;;;14.57;86.32;101658.09;5025607;28;20021;-73
2022/10/05 00:43:39;;;;;;;12.65;10.00;;;;;;;14.51;86.94;101663.50;5010238;28;20187;-73
2022/10/05 00:46:09;;;;;;;14.23;9.55;;;;;;;14.51;86.97;101662.66;5026357;28;20036;-72
2022/10/05 00:48:58;;;;;;;13.90;9.35;;;;;;;14.52;86.88;101667.94;5026656;28;20375;-71
2022/10/05 00:51:55;;;;;;;13.00;9.75;;;;;;;14.53;86.80;101666.84;5007290;28;20432;-73
2022/10/05 00:54:43;;;;;;;12.63;9.57;;;;;;;14.52;87.01;101665.16;5024733;28;20045;-72
2022/10/05 00:57:46;;;;;;;16.20;10.55;;;;;;;14.54;87.18;101662.16;5025790;28;20350;-70
2022/10/05 01:00:16;;;;;;;15.55;10.40;;;;;;;14.49;87.36;101665.63;5024216;28;20091;-73
2022/10/05 01:02:53;;;;;;;12.93;10.25;;;;;;;14.47;87.65;101664.16;5027297;28;20041;-72
2022/10/05 01:05:47;;;;;;;14.38;10.50;;;;;;;14.49;87.29;101660.09;5023965;28;20041;-70
2022/10/05 01:08:42;;;;;;;12.40;9.43;;;;;;;14.46;87.58;101655.03;5026095;28;20060;-71
2022/10/05 01:11:25;;;;;;;14.40;10.57;;;;;;;14.45;87.71;101647.81;5084236;22;20502;-70
2022/10/05 01:14:13;;;;;;;14.77;9.75;;;;;;;14.46;87.42;101646.75;5044368;28;20021;-69
2022/10/05 01:16:49;;;;;;;13.35;10.75;;;;;;;14.46;87.56;101643.13;5044327;28;20037;-71
2022/10/05 01:19:37;;;;;;;15.32;10.27;;;;;;;14.46;87.74;101637.59;5046855;28;20039;-71
2022/10/05 01:22:33;;;;;;;14.48;10.57;;;;;;;14.44;87.43;101640.59;5039880;28;20124;-70
2022/10/05 01:25:10;;;;;;;14.32;10.70;;;;;;;14.42;88.01;101631.69;5042126;28;20033;-69
2022/10/05 01:27:44;;;;;;;14.32;10.20;;;;;;;14.40;88.22;101633.88;5041514;28;20031;-70
2022/10/05 01:30:16;;;;;;;17.20;10.75;;;;;;;14.40;88.40;101635.81;5047061;28;20437;-71
2022/10/05 01:33:30;;;;;;;14.63;10.90;;;;;;;14.41;88.24;101627.25;5046563;28;20045;-71
2022/10/05 01:36:20;;;;;;;17.67;11.05;;;;;;;14.37;88.27;101628.81;5004852;28;20130;-70
2022/10/05 01:38:54;;;;;;;15.30;11.35;;;;;;;14.37;88.57;101628.81;5046018;28;20813;-71
2022/10/05 01:41:40;;;;;;;16.27;10.98;;;;;;;14.35;88.50;101633.75;5044746;28;20708;-70
2022/10/05 01:44:14;;;;;;;14.13;11.25;;;;;;;14.35;88.31;101624.63;5046960;28;20449;-71
2022/10/05 01:46:56;;;;;;;15.55;10.73;;;;;;;14.35;88.57;101624.63;5045172;28;20558;-70
2022/10/05 01:49:46;;;;;;;17.33;11.70;;;;;;;14.32;88.76;101614.84;5045618;28;20078;-69
2022/10/05 01:52:46;;;;;;;13.70;10.27;;;;;;;14.33;88.59;101615.69;5035460;28;20079;-72
2022/10/05 01:55:18;;;;;;;14.65;10.32;;;;;;;14.28;88.92;101608.97;5046589;28;20040;-71
2022/10/05 01:57:59;;;;;;;17.00;10.82;;;;;;;14.24;89.08;101602.25;5045960;28;20121;-71
2022/10/05 02:00:25;;;;;;;14.73;11.70;;;;;;;14.23;89.10;101596.94;5057709;28;20116;-72
2022/10/05 02:03:01;;;;;;;15.57;12.18;;;;;;;14.19;89.82;101590.19;5046717;28;20024;-71
2022/10/05 02:05:26;;;;;;;14.32;10.52;;;;;;;14.17;89.73;101592.34;5044308;28;20033;-71
2022/10/05 02:07:59;;;;;;;14.73;11.03;;;;;;;14.16;89.89;101587.91;5045064;28;20039;-70
2022/10/05 02:10:30;;;;;;;16.17;11.27;;;;;;;14.14;90.09;101588.16;5045733;28;20664;-73
2022/10/05 02:13:04;;;;;;;16.77;10.95;;;;;;;14.12;89.94;101575.66;5066417;28;20029;-71
2022/10/05 02:15:40;;;;;;;14.77;10.68;;;;;;;14.12;90.40;101578.41;5065648;28;20422;-71
2022/10/05 02:18:11;;;;;;;14.65;10.80;;;;;;;14.11;90.04;101579.50;5066010;28;20474;-69
2022/10/05 02:20:39;;;;;;;14.18;10.98;;;;;;;14.09;90.17;101582.50;5065075;28;20032;-70
2022/10/05 02:23:09;;;;;;;15.90;11.05;;;;;;;14.11;90.27;101585.03;5063594;28;20032;-70
2022/10/05 02:25:42;;;;;;;17.90;11.25;;;;;;;14.09;90.53;101576.13;5066667;28;20036;-71
2022/10/05 02:28:14;;;;;;;16.55;11.20;;;;;;;14.08;90.30;101571.66;5066301;28;20028;-70
2022/10/05 02:30:47;;;;;;;16.75;12.00;;;;;;;14.09;90.28;101573.34;5066315;28;20419;-70
2022/10/05 02:33:23;;;;;;;14.88;11.25;;;;;;;14.10;90.42;101572.28;5065640;28;20435;-71
2022/10/05 02:35:48;;;;;;;13.48;10.65;;;;;;;14.10;90.18;101562.09;5064272;28;20466;-69
2022/10/05 02:38:23;;;;;;;16.02;11.30;;;;;;;14.11;90.30;101554.63;5065831;28;20032;-71
2022/10/05 02:41:29;;;;;;;16.17;11.73;;;;;;;14.09;90.11;101560.41;5065340;28;20493;-68
2022/10/05 02:44:22;;;;;;;15.57;11.57;;;;;;;14.12;89.98;101559.06;5065853;28;20740;-71
2022/10/05 02:47:04;;;;;;;15.85;11.32;;;;;;;14.10;90.07;101551.03;5065711;28;20092;-70
2022/10/05 02:49:52;;;;;;;14.88;11.82;;;;;;;14.10;90.32;101545.50;5065622;28;20381;-71
2022/10/05 02:52:25;;;;;;;16.58;11.80;;;;;;;14.11;90.49;101546.34;5064613;28;20250;-70
2022/10/05 02:55:16;;;;;;;17.65;11.95;;;;;;;14.12;90.25;101531.44;5046545;28;20228;-69
2022/10/05 02:57:56;;;;;;;15.90;11.57;;;;;;;14.09;90.43;101537.44;5052762;28;20151;-71
2022/10/05 03:00:27;;;;;;;15.85;11.40;;;;;;;14.09;90.30;101526.41;5064687;28;20033;-72
2022/10/05 03:03:14;;;;;;;17.67;12.23;;;;;;;14.10;90.18;101525.34;5066051;28;20565;-71
2022/10/05 03:05:45;;;;;;;16.42;11.55;;;;;;;14.07;90.43;101520.28;5065094;28;20033;-71
2022/10/05 03:08:20;;;;;;;15.70;11.10;;;;;;;14.05;90.86;101523.28;5064869;28;20041;-71
2022/10/05 03:10:58;;;;;;;18.13;11.57;;;;;;;14.03;91.10;101523.50;5046897;28;20486;-70
2022/10/05 03:13:33;;;;;;;17.48;11.85;;;;;;;14.05;91.08;101522.44;5065953;28;20085;-71
2022/10/05 03:16:28;;;;;;;14.82;11.25;;;;;;;14.03;90.63;101523.50;5065332;28;20359;-67
2022/10/05 03:19:12;;;;;;;19.08;11.55;;;;;;;14.05;90.60;101522.44;5063945;28;20090;-70
2022/10/05 03:22:11;;;;;;;14.98;11.30;;;;;;;14.05;90.63;101522.44;5064726;28;20036;-71
2022/10/05 03:24:49;;;;;;;18.30;11.90;;;;;;;14.06;90.59;101515.84;5068457;28;20089;-71
2022/10/05 03:27:14;;;;;;;15.30;11.57;;;;;;;14.03;91.09;101512.44;5068689;28;20020;-71
2022/10/05 03:29:46;;;;;;;15.30;11.43;;;;;;;14.01;91.01;101519.31;5068739;28;20107;-68
2022/10/05 03:32:24;;;;;;;17.60;11.95;;;;;;;14.01;91.43;101525.66;5049831;28;20467;-69
2022/10/05 03:35:11;;;;;;;16.75;11.70;;;;;;;14.03;91.17;101522.66;5050223;28;20717;-69
2022/10/05 03:38:06;;;;;;;16.90;11.83;;;;;;;14.07;90.75;101517.50;5068286;28;20048;-71
2022/10/05 03:40:53;;;;;;;14.65;11.85;;;;;;;14.02;90.72;101513.53;5061552;28;20075;-71
2022/10/05 03:43:54;;;;;;;18.10;11.80;;;;;;;14.00;91.28;101509.34;5069213;28;20033;-69
2022/10/05 03:47:00;;;;;;;18.83;11.48;;;;;;;14.00;90.94;101518.47;5058842;28;20028;-71
2022/10/05 03:49:32;;;;;;;16.45;11.43;;;;;;;13.96;91.41;101517.25;5047964;28;20049;-71
2022/10/05 03:52:34;;;;;;;17.73;11.10;;;;;;;13.94;91.20;101511.13;5064790;28;20020;-67
2022/10/05 03:55:16;;;;;;;18.17;11.77;;;;;;;13.92;91.52;101510.50;5068387;28;20029;-69
2022/10/05 03:57:44;;;;;;;19.33;11.77;;;;;;;13.89;91.66;101516.53;5061059;28;20044;-69
2022/10/05 04:00:16;;;;;;;20.55;11.18;;;;;;;13.91;91.60;101524.56;5067344;28;20028;-72
2022/10/05 04:03:00;;;;;;;17.13;12.00;;;;;;;13.90;91.64;101507.16;5068865;28;20451;-68
2022/10/05 04:05:32;;;;;;;14.65;11.70;;;;;;;13.90;91.75;101509.09;5067678;28;20038;-71
2022/10/05 04:08:00;;;;;;;16.98;12.07;;;;;;;13.90;91.80;101509.94;5063745;28;20025;-68
2022/10/05 04:10:41;;;;;;;17.58;11.90;;;;;;;13.90;92.19;101523.72;5066498;28;20040;-71
2022/10/05 04:13:21;;;;;;;18.25;12.18;;;;;;;13.94;91.67;101513.91;5068648;28;20025;-72
2022/10/05 04:16:13;;;;;;;16.45;11.82;;;;;;;13.97;91.74;101520.84;5067766;28;20028;-71
2022/10/05 04:18:44;;;;;;;20.27;12.50;;;;;;;13.97;91.54;101518.94;5067202;28;20066;-69
2022/10/05 04:21:18;;;;;;;15.95;11.65;;;;;;;13.94;91.45;101511.13;5066812;28;20028;-70
2022/10/05 04:23:57;;;;;;;18.42;11.88;;;;;;;13.96;91.81;101508.13;5068292;28;20059;-71
2022/10/05 04:26:49;;;;;;;17.25;11.70;;;;;;;14.01;91.30;101514.63;5067165;28;20128;-71
2022/10/05 04:29:33;;;;;;;16.40;11.85;;;;;;;14.02;91.56;101515.47;5067831;28;20020;-71
2022/10/05 04:32:07;;;;;;;19.10;12.13;;;;;;;13.94;91.62;101515.81;5067407;28;20485;-71
2022/10/05 04:34:44;;;;;;;19.08;12.68;;;;;;;13.93;91.75;101511.34;5066808;28;20094;-71
2022/10/05 04:37:20;;;;;;;16.45;11.77;;;;;;;13.91;91.96;101506.06;5066071;28;20032;-70
2022/10/05 04:40:09;;;;;;;20.23;12.70;;;;;;;13.90;92.22;101504.41;5049539;28;20039;-70
2022/10/05 04:42:56;;;;;;;17.95;12.23;;;;;;;13.89;92.14;101499.97;5048236;28;20037;-70
2022/10/05 04:45:59;;;;;;;19.13;12.75;;;;;;;13.95;92.10;101492.66;5060264;28;20040;-68
2022/10/05 04:49:09;;;;;;;16.67;12.23;;;;;;;13.91;91.71;101494.19;5037466;28;20052;-71
2022/10/05 04:51:53;;;;;;;19.23;11.82;;;;;;;13.88;91.65;101494.66;5058958;28;20035;-71
2022/10/05 04:54:34;;;;;;;17.73;11.52;;;;;;;13.88;91.40;101498.25;5068164;28;20068;-70
2022/10/05 04:57:10;;;;;;;17.90;11.90;;;;;;;13.93;91.25;101492.84;5066294;28;20516;-71
2022/10/05 05:00:20;;;;;;;16.42;11.25;;;;;;;13.92;91.40;101499.47;5067412;28;20050;-71
2022/10/05 05:03:22;;;;;;;17.25;12.07;;;;;;;13.93;91.07;101489.25;5067498;28;20025;-71
2022/10/05 05:06:00;;;;;;;17.17;10.57;;;;;;;13.90;90.95;101487.84;5062161;28;20086;-71
2022/10/05 05:08:34;;;;;;;16.98;11.27;;;;;;;13.91;90.67;101491.44;5060892;28;20056;-67
2022/10/05 05:11:17;;;;;;;18.63;11.70;;;;;;;13.90;90.51;101485.06;5067097;28;20040;-71
2022/10/05 05:13:45;;;;;;;17.83;10.35;;;;;;;13.92;90.08;101482.91;5060877;28;20098;-71
2022/10/05 05:16:38;;;;;;;13.93;9.90;;;;;;;13.93;90.34;101490.09;5058909;28;20482;-71
2022/10/05 05:19:09;;;;;;;15.57;9.82;;;;;;;13.92;89.58;101473.78;5065145;28;20021;-69
2022/10/05 05:21:46;;;;;;;15.60;10.80;;;;;;;13.94;89.76;101491.81;5065867;28;20032;-68
2022/10/05 05:24:21;;;;;;;15.20;9.52;;;;;;;13.94;89.32;101486.28;5066576;28;20608;-71
2022/10/05 05:27:14;;;;;;;12.18;8.65;;;;;;;13.97;89.17;101477.50;5067702;28;20032;-70
2022/10/05 05:30:15;;;;;;;17.08;9.55;;;;;;;13.98;89.40;101483.88;5054023;28;20374;-71
2022/10/05 05:32:59;;;;;;;14.50;9.65;;;;;;;13.99;88.84;101478.13;5065997;28;20032;-71
2022/10/05 05:35:33;;;;;;;14.02;9.35;;;;;;;13.98;88.93;101479.19;5064867;28;20097;-70
2022/10/05 05:38:20;;;;;;;14.75;9.10;;;;;;;13.95;89.19;101471.38;5066105;28;20037;-70
2022/10/05 05:41:23;;;;;;;18.50;10.05;;;;;;;13.94;89.11;101475.25;5066257;28;20529;-70
2022/10/05 05:44:09;;;;;;;17.52;9.50;;;;;;;13.99;89.17;101472.59;5066375;28;20043;-68
2022/10/05 05:46:38;;;;;;;14.35;8.80;;;;;;;13.94;89.31;101471.63;5065265;28;20033;-70
2022/10/05 05:49:14;;;;;;;;;;;;;;;13.99;88.88;101475.38;5047604;28;20119;-71
2022/10/05 05:51:49;;;;;;;12.55;9.27;;;;;;;13.98;89.13;101468.13;5065888;28;19916;-71
2022/10/05 05:54:14;;;;;;;13.90;9.23;;;;;;;13.92;89.44;101473.78;5048839;28;20024;-71
2022/10/05 05:56:47;;;;;;;14.47;9.60;;;;;;;13.90;89.31;101473.19;5066022;28;20501;-69
2022/10/05 05:59:22;;;;;;;15.52;9.40;;;;;;;13.88;89.67;101465.13;5064642;28;20287;-70
2022/10/05 06:01:51;;;;;;;18.05;9.80;;;;;;;13.88;89.75;101465.13;5066874;28;20480;-71
2022/10/05 06:04:42;;;;;;;16.70;9.00;;;;;;;13.91;89.71;101461.06;5065911;28;21238;-70
2022/10/05 06:07:16;;;;;;;13.30;8.57;;;;;;;13.89;89.75;101454.91;5066190;28;20028;-68
2022/10/05 06:09:46;;;;;;;13.93;9.23;;;;;;;13.88;89.61;101462.34;5054778;28;20409;-70
2022/10/05 06:12:17;;;;;;;13.80;9.20;;;;;;;13.89;89.76;101465.97;5066055;28;20043;-68
2022/10/05 06:14:50;;;;;;;13.70;9.90;;;;;;;13.89;89.80;101466.81;5066770;28;20035;-71
2022/10/05 06:17:22;;;;;;;14.82;9.30;;;;;;;13.89;89.87;101465.97;5046685;28;20086;-72
2022/10/05 06:19:52;;;;;;;13.25;9.23;;;;;;;13.90;89.15;101471.25;5064200;28;20029;-72
2022/10/05 06:22:24;;;;;;;15.82;9.07;;;;;;;13.89;89.40;101466.81;5065842;28;20438;-72
2022/10/05 06:25:11;;;;;;;15.27;8.75;;;;;;;13.90;89.45;101467.66;5065250;28;20032;-69
2022/10/05 06:27:58;;;;;;;16.13;8.93;;;;;;;13.89;89.41;101477.88;5065797;28;20478;-72
2022/10/05 06:30:25;;;;;;;12.23;8.00;;;;;;;13.92;89.13;101462.72;5064432;28;20370;-69
2022/10/05 06:33:06;;;;;;;13.00;8.35;;;;;;;13.90;89.15;101459.38;5065016;28;20052;-73
2022/10/05 06:35:48;;;;;;;12.57;8.15;;;;;;;13.91;89.42;101464.66;5064983;28;20036;-71
2022/10/05 06:38:19;;;;;;;13.13;8.43;;;;;;;13.91;88.85;101459.13;5054065;28;20023;-72
2022/10/05 06:41:03;;;;;;;12.65;7.85;;;;;;;13.92;89.03;101460.81;5066061;28;20047;-73
2022/10/05 06:43:57;;;;;;;10.68;7.72;;;;;;;13.95;89.17;101456.75;5065026;28;20596;-73
2022/10/05 06:46:39;;;;;;;10.30;7.00;;;;;;;13.99;88.43;101461.56;5062832;28;20052;-70
2022/10/05 06:49:37;;;;;;;12.32;7.65;;;;;;;14.03;88.41;101465.50;5064633;28;20028;-70
2022/10/05 06:52:05;;;;;;;11.02;7.93;;;;;;;14.03;88.08;101457.22;5029739;28;20051;-70
2022/10/05 06:54:47;;;;;;;13.43;7.68;;;;;;;14.10;88.19;101456.28;5066768;28;20033;-68
2022/10/05 06:57:43;;;;;;;12.23;7.55;;;;;;;14.12;87.78;101460.47;5064817;28;20031;-72
2022/10/05 07:00:45;;;;;;;12.15;7.57;;;;;;;14.13;87.84;101462.16;5069299;28;20293;-72
2022/10/05 07:03:35;;;;;;;13.32;7.30;;;;;;;14.15;87.60;101465.53;5067436;28;20055;-72
2022/10/05 07:06:17;;;;;;;13.13;7.70;;;;;;;14.19;87.63;101476.91;5068439;28;20044;-71
2022/10/05 07:08:51;;;;;;;13.38;7.95;;;;;;;14.20;87.36;101468.41;5070267;28;20533;-71
2022/10/05 07:11:45;;;;;;;12.77;7.50;;;;;;;14.24;87.30;101475.16;5070314;28;20044;-72
2022/10/05 07:14:42;;;;;;;11.50;7.10;;;;;;;14.28;87.49;101478.25;5068788;28;20037;-68
2022/10/05 07:17:26;;;;;;;11.13;6.90;;;;;;;14.31;86.92;101468.66;5069110;28;20037;-71
2022/10/05 07:20:18;;;;;;;13.60;7.43;;;;;;;14.35;86.20;101461.56;5068277;28;20294;-68
2022/10/05 07:26:19;;;;;;;11.23;7.05;;;;;;;14.47;86.43;101465.16;5067814;28;20108;-69
2022/10/05 07:29:38;;;;;;;10.93;6.82;;;;;;;14.52;86.29;101466.13;5062805;28;20037;-72
2022/10/05 07:32:19;;;;;;;11.27;6.97;;;;;;;14.52;85.90;101477.19;5021858;28;20036;-69
2022/10/05 07:37:52;;;;;;;11.02;6.78;;;;;;;14.57;86.21;101472.88;5044508;28;20391;-72
2022/10/05 07:37:58;;;;;;;11.05;7.30;;;;;;;14.62;85.71;101475.75;5059232;28;20041;-72
2022/10/05 07:40:46;;;;;;;12.73;8.55;;;;;;;14.63;85.62;101472.75;5061124;28;20029;-71
2022/10/05 07:43:36;;;;;;;10.75;7.40;;;;;;;14.66;85.44;101472.25;5066257;28;20052;-73
2022/10/05 07:46:18;;;;;;;12.38;7.72;;;;;;;14.67;85.40;101473.09;5068879;28;20089;-72
2022/10/05 07:48:49;;;;;;;13.75;7.88;;;;;;;14.68;85.83;101477.53;5063403;28;20036;-72
2022/10/05 07:51:26;;;;;;;12.60;7.85;;;;;;;14.72;85.35;101475.97;5064419;28;20040;-72
2022/10/05 07:54:01;;;;;;;12.15;7.70;;;;;;;14.78;86.29;101486.06;5063728;28;20028;-68
2022/10/05 07:56:39;;;;;;;13.52;7.80;;;;;;;14.81;84.88;101480.06;5058139;28;20020;-72
2022/10/05 07:59:11;;;;;;;12.05;7.97;;;;;;;14.86;85.04;101476.56;5063820;28;20032;-70
2022/10/05 08:01:42;;;;;;;13.80;7.95;;;;;;;14.88;84.86;101478.00;5061869;28;20028;-71
2022/10/05 08:04:18;;;;;;;11.10;7.60;;;;;;;14.92;84.25;101476.41;5065254;28;20498;-72
2022/10/05 08:06:50;;;;;;;9.73;6.63;;;;;;;14.96;84.06;101474.84;5068762;28;20028;-72
2022/10/05 08:09:35;;;;;;;12.80;7.68;;;;;;;14.97;84.43;101475.69;5063964;28;20037;-69
2022/10/05 08:12:10;;;;;;;14.35;8.13;;;;;;;15.05;84.37;101467.84;5069711;28;20076;-70
2022/10/05 08:14:50;;;;;;;11.77;7.25;;;;;;;15.11;84.31;101470.72;5069425;28;20044;-69
2022/10/05 08:17:19;;;;;;;10.05;7.07;;;;;;;15.16;83.90;101468.91;5066559;28;20556;-72
2022/10/05 08:19:52;;;;;;;11.23;7.18;;;;;;;15.22;83.70;101467.91;5062420;28;20075;-71
2022/10/05 08:22:28;;;;;;;10.05;6.40;;;;;;;15.29;83.30;101456.69;5065122;28;20043;-69
2022/10/05 08:25:04;;;;;;;11.43;6.72;;;;;;;15.32;82.69;101457.03;5067087;28;20082;-71
2022/10/05 08:27:42;;;;;;;10.98;7.32;;;;;;;15.45;83.42;101452.28;5064175;28;20028;-70
2022/10/05 08:30:11;;;;;;;10.35;6.90;;;;;;;15.50;82.02;101452.38;5066784;28;20501;-70
2022/10/05 08:33:11;;;;;;;12.02;6.65;;;;;;;15.53;82.47;101451.88;5064557;28;20029;-70
2022/10/05 08:35:42;;;;;;;12.80;6.55;;;;;;;15.55;81.59;101446.91;5067659;28;20041;-70
2022/10/05 08:38:17;;;;;;;9.48;6.00;;;;;;;15.62;81.84;101446.78;5070719;28;20032;-69
2022/10/05 08:40:45;;;;;;;11.93;6.78;;;;;;;15.64;81.56;101444.63;5077156;28;20086;-71
2022/10/05 08:43:48;;;;;;;11.70;6.57;;;;;;;15.74;81.53;101448.41;5066133;28;20040;-70
2022/10/05 08:46:51;;;;;;;10.57;6.57;;;;;;;15.83;81.40;101443.31;5066846;28;20032;-70
2022/10/05 08:49:55;;;;;;;10.50;6.43;;;;;;;15.83;81.48;101437.75;5061223;28;20194;-70
2022/10/05 08:52:24;;;;;;;13.73;6.53;;;;;;;15.86;80.38;101437.25;5055196;28;20459;-70
2022/10/05 08:54:53;;;;;;;9.60;5.97;;;;;;;15.86;80.65;101431.69;5064270;28;20551;-69
2022/10/05 08:57:27;;;;;;;10.25;6.07;;;;;;;15.92;80.23;101438.19;5060682;28;20056;-68
2022/10/05 09:00:09;;;;;;;8.85;6.30;;;;;;;16.04;80.98;101431.44;5066463;28;20124;-71
2022/10/05 09:03:23;;;;;;;11.15;6.28;;;;;;;16.18;79.74;101433.88;5070668;28;20063;-66
2022/10/05 09:06:32;;;;;;;10.50;5.95;;;;;;;16.17;80.03;101424.75;5063262;28;20020;-65
2022/10/05 09:09:23;;;;;;;9.05;5.60;;;;;;;16.30;79.29;101415.22;5087982;28;20071;-65
2022/10/05 09:12:18;;;;;;;11.60;6.15;;;;;;;16.39;78.41;101418.41;5087919;28;20482;-66
2022/10/05 09:15:08;;;;;;;11.18;5.82;;;;;;;16.39;78.82;101413.69;5069608;28;20033;-66
2022/10/05 09:18:04;;;;;;;13.85;6.85;;;;;;;16.50;78.55;101412.72;5051075;28;20640;-66
2022/10/05 09:20:53;;;;;;;14.32;6.03;;;;;;;16.58;78.16;101423.38;5048594;28;20086;-66
2022/10/05 09:23:32;;;;;;;9.25;5.70;;;;;;;16.61;78.03;101422.03;5068023;28;20098;-67
2022/10/05 09:26:11;;;;;;;9.60;5.60;;;;;;;16.69;77.27;101412.44;5066394;28;20132;-66
2022/10/05 09:29:07;;;;;;;8.93;6.05;;;;;;;16.73;77.94;101414.47;5067690;28;20036;-66
2022/10/05 09:31:57;;;;;;;9.88;5.55;;;;;;;16.71;77.30;101413.00;5067179;28;20024;-66
2022/10/05 09:34:54;;;;;;;9.70;5.68;;;;;;;16.66;77.50;101424.03;5065715;28;20098;-66
2022/10/05 09:37:44;;;;;;;10.30;6.05;;;;;;;16.76;76.91;101413.94;5065020;28;20082;-66
2022/10/05 09:40:21;;;;;;;8.20;5.20;;;;;;;16.79;76.77;101415.34;5060049;28;20362;-66
2022/10/05 09:43:06;;;;;;;8.93;5.18;;;;;;;16.85;76.76;101415.16;5068081;28;20472;-66
2022/10/05 09:46:02;;;;;;;9.93;5.28;;;;;;;16.97;76.71;101403.06;5067560;28;20409;-66
2022/10/05 09:49:05;;;;;;;9.00;5.13;;;;;;;17.06;76.17;101413.47;5065841;28;20409;-67
2022/10/05 09:51:59;;;;;;;10.25;5.05;;;;;;;17.16;75.62;101407.19;5066220;28;20120;-67
2022/10/05 09:54:42;;;;;;;8.75;5.05;;;;;;;17.09;75.68;101401.84;5067361;28;20376;-66
2022/10/05 09:57:50;;;;;;;9.15;5.00;;;;;;;17.17;75.48;101396.91;5065686;28;20043;-66
2022/10/05 10:00:25;;;;;;;11.35;5.47;;;;;;;17.20;74.94;101397.25;5029147;28;20052;-66
2022/10/05 10:03:05;;;;;;;10.40;5.30;;;;;;;17.19;75.36;101383.63;5064047;28;20147;-66
2022/10/05 10:05:46;;;;;;;11.20;5.22;;;;;;;17.24;74.21;101389.25;5066388;28;20024;-66
2022/10/05 10:08:33;;;;;;;10.88;5.25;;;;;;;17.32;75.36;101385.97;5066641;28;20060;-66
2022/10/05 10:11:16;;;;;;;9.48;5.38;;;;;;;17.41;74.86;101378.84;5066113;28;20140;-67
2022/10/05 10:13:50;;;;;;;9.65;5.53;;;;;;;17.39;73.63;101372.72;5058728;28;20041;-67
2022/10/05 10:16:45;;;;;;;9.18;5.47;;;;;;;17.46;74.57;101373.34;5061871;28;20598;-67
2022/10/05 10:19:29;;;;;;;8.30;5.30;;;;;;;17.54;73.56;101369.25;5065071;28;20024;-67
2022/10/05 10:22:27;;;;;;;9.55;5.10;;;;;;;17.67;73.22;101367.94;5066006;28;20043;-67
2022/10/05 10:25:04;;;;;;;8.27;4.25;;;;;;;17.89;72.44;101371.47;5065875;28;20040;-67
2022/10/05 10:27:48;;;;;;;7.82;4.15;;;;;;;17.99;71.86;101363.22;5066864;28;20059;-67
2022/10/05 10:30:44;;;;;;;8.20;5.03;;;;;;;18.13;71.51;101353.31;5067108;28;20481;-67
2022/10/05 10:33:27;;;;;;;7.72;4.93;;;;;;;18.33;71.48;101354.53;5064428;28;20152;-67
2022/10/05 10:36:20;;;;;;;8.65;4.78;;;;;;;18.82;69.91;101348.66;5072700;28;20032;-66
2022/10/05 10:38:48;;;;;;;8.27;4.35;;;;;;;19.77;65.66;101339.84;5063501;28;20441;-66
2022/10/05 10:41:48;;;;;;;8.38;4.50;;;;;;;20.46;63.99;101337.19;5070080;28;20028;-65
2022/10/05 10:44:37;;;;;;;7.88;4.75;;;;;;;21.02;61.43;101333.28;5063755;28;20397;-66
2022/10/05 10:47:27;;;;;;;7.38;4.75;;;;;;;20.84;61.15;101339.56;5072713;28;20110;-65
2022/10/05 10:50:21;;;;;;;9.10;3.97;;;;;;;20.37;63.51;101324.91;5066346;28;20048;-65
2022/10/05 10:52:56;;;;;;;8.30;4.32;;;;;;;20.11;64.70;101331.72;5060059;28;20091;-65
2022/10/05 10:55:42;;;;;;;8.75;4.00;;;;;;;19.64;65.55;101333.75;5063370;28;20045;-66
2022/10/05 10:58:49;;;;;;;8.60;4.15;;;;;;;19.28;66.77;101326.47;5063841;28;20033;-66
2022/10/05 11:01:41;;;;;;;8.95;4.13;;;;;;;19.26;67.10;101325.88;5063016;28;20036;-66
2022/10/05 11:04:28;;;;;;;9.60;4.22;;;;;;;19.22;67.28;101313.66;5051465;28;20120;-66
2022/10/05 11:07:02;;;;;;;9.27;3.97;;;;;;;19.01;68.15;101326.69;5068182;28;20436;-67
2022/10/05 11:09:52;;;;;;;9.93;4.47;;;;;;;18.98;67.46;101333.66;5060312;28;20406;-67
2022/10/05 11:12:36;;;;;;;7.90;4.38;;;;;;;18.87;68.28;101318.06;5062150;28;20056;-66
2022/10/05 11:15:17;;;;;;;9.05;4.43;;;;;;;18.84;68.62;101310.25;5044006;28;20075;-67
2022/10/05 11:18:19;;;;;;;7.68;4.20;;;;;;;19.03;68.93;101324.47;5042302;28;20029;-67
2022/10/05 11:20:54;;;;;;;10.13;3.83;;;;;;;18.99;69.08;101318.63;5044091;28;20425;-66
2022/10/05 11:23:41;;;;;;;8.93;3.88;;;;;;;19.08;68.29;101321.69;5059298;28;20028;-68
2022/10/05 11:26:25;;;;;;;7.18;3.45;;;;;;;19.31;68.09;101326.75;5063573;28;20093;-66
2022/10/05 11:28:56;;;;;;;7.18;3.60;;;;;;;19.60;66.28;101307.53;5062326;28;20028;-67
2022/10/05 11:31:49;;;;;;;8.45;3.50;;;;;;;19.82;65.81;101303.59;5062694;28;20106;-67
2022/10/05 11:34:42;;;;;;;5.43;3.47;;;;;;;20.20;62.97;101302.94;5065829;28;20618;-68
2022/10/05 11:37:35;;;;;;;7.47;4.22;;;;;;;20.17;63.17;101300.75;5062727;28;20045;-64
2022/10/05 11:40:35;;;;;;;9.85;3.63;;;;;;;20.35;63.90;101287.28;5049583;28;20390;-64
2022/10/05 11:43:12;;;;;;;5.55;3.25;;;;;;;20.44;62.94;101293.94;5063737;28;20094;-64
2022/10/05 11:46:04;;;;;;;8.65;3.35;;;;;;;21.42;60.54;101275.47;5066995;28;20115;-64
2022/10/05 11:49:14;;;;;;;8.73;3.63;;;;;;;21.38;59.89;101283.59;5062944;28;20139;-64
2022/10/05 11:51:57;;;;;;;8.20;3.53;;;;;;;21.39;59.54;101276.03;5067286;28;20386;-64
2022/10/05 11:54:43;;;;;;;5.28;2.85;;;;;;;21.08;60.53;101281.00;5066377;28;20298;-65
2022/10/05 11:57:41;;;;;;;7.18;3.10;;;;;;;20.76;61.87;101268.41;5065692;28;20090;-65
2022/10/05 12:00:12;;;;;;;5.63;3.10;;;;;;;20.60;61.46;101264.88;5065747;28;20028;-65
2022/10/05 12:03:01;;;;;;;6.47;2.67;;;;;;;20.63;61.71;101250.34;5065944;28;20646;-65
2022/10/05 12:05:37;;;;;;;6.35;2.80;;;;;;;20.49;61.99;101251.25;5065363;28;20028;-65
2022/10/05 12:08:31;;;;;;;7.90;3.10;;;;;;;20.69;61.47;101251.16;5066850;28;20016;-65
2022/10/05 12:11:30;;;;;;;6.80;3.25;;;;;;;20.88;62.48;101251.28;5066247;28;20505;-65
2022/10/05 12:14:04;;;;;;;6.47;2.95;;;;;;;20.93;62.60;101232.56;5046861;28;20090;-65
2022/10/05 12:16:40;;;;;;;5.63;2.50;;;;;;;20.90;61.23;101226.72;5046690;28;20064;-65
2022/10/05 12:19:13;;;;;;;7.03;2.90;;;;;;;20.86;61.44;101228.41;5050297;28;20118;-65
2022/10/05 12:21:48;;;;;;;6.65;2.85;;;;;;;20.73;61.34;101224.31;5069022;28;20479;-66
2022/10/05 12:24:27;;;;;;;5.18;2.30;;;;;;;20.92;62.04;101224.44;5065181;28;20027;-66
2022/10/05 12:27:10;;;;;;;7.05;2.50;;;;;;;21.23;61.28;101217.47;5067299;28;20100;-65
2022/10/05 12:30:12;;;;;;;6.25;2.50;;;;;;;21.36;60.58;101224.38;5067023;28;20021;-67